Time;durP1;ratioP1;P1;durP2;ratioP2;P2;SDS_P1;SDS_P2;PMS_P1;PMS_P2;Temp;Humidity;BMP_temperature;BMP_pressure;BME280_temperature;BME280_humidity;BME280_pressure;Samples;Min_cycle;Max_cycle;Signal;HPM_P1;HPM_P2
2023/03/24 00:00:12;;;;;;;3.37;2.40;;;11.60;99.90;;;;;;4986984;28;20222;-65
2023/03/24 00:02:40;;;;;;;6.90;2.83;;;11.60;99.90;;;;;;4987033;28;20274;-65
2023/03/24 00:05:09;;;;;;;4.13;2.47;;;11.60;99.90;;;;;;4988819;28;20226;-67
2023/03/24 00:07:37;;;;;;;3.47;2.10;;;11.60;99.90;;;;;;4987779;28;20192;-72
2023/03/24 00:10:08;;;;;;;2.70;2.50;;;11.50;99.90;;;;;;4985109;28;20681;-70
2023/03/24 00:12:37;;;;;;;3.37;2.97;;;11.50;99.90;;;;;;4986682;28;20203;-71
2023/03/24 00:15:05;;;;;;;2.70;2.50;;;11.50;99.90;;;;;;4986853;28;20620;-69
2023/03/24 00:17:31;;;;;;;2.60;2.33;;;11.50;99.90;;;;;;4986550;28;20204;-70
2023/03/24 00:19:57;;;;;;;5.57;2.70;;;11.50;99.90;;;;;;4987827;28;20257;-71
2023/03/24 00:22:22;;;;;;;3.40;2.03;;;11.40;99.90;;;;;;4986994;28;20214;-72
2023/03/24 00:24:48;;;;;;;3.17;2.77;;;11.40;99.90;;;;;;4986955;28;20208;-71
2023/03/24 00:27:14;;;;;;;3.23;2.73;;;11.40;99.90;;;;;;4988476;28;20896;-72
2023/03/24 00:29:40;;;;;;;3.50;2.70;;;11.40;99.90;;;;;;4987869;28;20215;-70
2023/03/24 00:32:06;;;;;;;3.53;3.00;;;11.40;99.90;;;;;;4984924;28;20293;-70
2023/03/24 00:34:37;;;;;;;4.03;2.83;;;11.40;99.90;;;;;;4986669;28;20729;-69
2023/03/24 00:37:04;;;;;;;4.07;2.60;;;11.50;99.90;;;;;;4987170;28;20563;-70
2023/03/24 00:39:30;;;;;;;2.70;2.50;;;11.40;99.90;;;;;;4988888;28;20298;-70
2023/03/24 00:41:57;;;;;;;2.70;2.50;;;11.40;99.90;;;;;;4986589;28;20617;-66
2023/03/24 00:44:23;;;;;;;4.23;2.73;;;11.40;99.90;;;;;;4986034;28;20663;-68
2023/03/24 00:46:54;;;;;;;3.83;2.33;;;11.40;99.90;;;;;;4987424;28;20263;-66
2023/03/24 00:49:40;;;;;;;2.40;2.20;;;11.30;99.90;;;;;;4985902;28;20199;-68
2023/03/24 00:52:14;;;;;;;4.67;2.73;;;11.30;99.90;;;;;;4990107;28;20207;-66
2023/03/24 00:54:40;;;;;;;2.57;2.37;;;11.20;99.90;;;;;;4985967;28;20863;-66
2023/03/24 00:57:07;;;;;;;4.53;3.23;;;11.20;99.90;;;;;;4985538;28;20203;-67
2023/03/24 00:59:47;;;;;;;2.87;2.40;;;11.20;99.90;;;;;;4987148;28;20350;-67
2023/03/24 01:02:26;;;;;;;2.60;2.40;;;11.20;99.90;;;;;;4986030;28;20219;-69
2023/03/24 01:04:56;;;;;;;2.10;1.80;;;11.10;99.90;;;;;;4986987;28;20326;-69
2023/03/24 01:07:24;;;;;;;2.50;2.30;;;11.10;99.90;;;;;;4988490;28;20205;-66
2023/03/24 01:09:56;;;;;;;3.10;2.23;;;11.10;99.90;;;;;;4986415;28;20721;-66
2023/03/24 01:12:29;;;;;;;2.20;2.00;;;11.10;99.90;;;;;;4987880;28;20227;-66
2023/03/24 01:14:57;;;;;;;2.47;2.27;;;11.10;99.90;;;;;;4978719;28;20202;-66
2023/03/24 01:17:24;;;;;;;2.00;1.80;;;11.10;99.90;;;;;;4982258;28;20214;-67
2023/03/24 01:19:50;;;;;;;2.90;2.30;;;11.10;99.90;;;;;;4995793;28;20215;-66
2023/03/24 01:22:16;;;;;;;3.17;1.90;;;11.10;99.90;;;;;;4996632;28;20231;-67
2023/03/24 01:24:42;;;;;;;5.13;2.60;;;11.10;99.90;;;;;;4995716;28;20310;-67
2023/03/24 01:27:08;;;;;;;3.77;2.00;;;11.10;99.90;;;;;;4996636;28;20204;-67
2023/03/24 01:29:33;;;;;;;2.10;2.00;;;11.10;99.90;;;;;;4996219;28;20214;-67
2023/03/24 01:31:59;;;;;;;2.50;2.30;;;11.10;99.90;;;;;;4994843;28;20207;-67
2023/03/24 01:34:24;;;;;;;2.20;2.00;;;11.00;99.90;;;;;;4996294;28;20232;-67
2023/03/24 01:36:50;;;;;;;3.97;2.50;;;11.00;99.90;;;;;;4996267;28;20750;-67
2023/03/24 01:39:15;;;;;;;2.33;2.13;;;11.10;99.90;;;;;;4991910;28;20824;-67
2023/03/24 01:41:41;;;;;;;2.97;2.50;;;11.10;99.90;;;;;;4987060;28;20201;-67
2023/03/24 01:44:30;;;;;;;2.10;2.00;;;11.10;99.90;;;;;;4987560;28;20228;-66
2023/03/24 01:46:57;;;;;;;2.87;2.60;;;11.10;99.90;;;;;;4986300;28;20294;-67
2023/03/24 01:49:27;;;;;;;2.27;2.07;;;11.10;99.90;;;;;;4990462;28;20196;-67
2023/03/24 01:51:58;;;;;;;2.20;2.00;;;11.10;99.90;;;;;;4985799;28;21347;-68
2023/03/24 01:54:35;;;;;;;3.47;2.20;;;11.10;99.90;;;;;;4987388;28;20685;-67
2023/03/24 01:57:00;;;;;;;2.10;1.90;;;11.00;99.90;;;;;;4986181;28;20213;-67
2023/03/24 01:59:29;;;;;;;2.70;2.47;;;11.10;99.90;;;;;;4984597;28;20703;-67
2023/03/24 02:02:01;;;;;;;2.97;2.00;;;11.00;99.90;;;;;;4987296;28;20697;-67
2023/03/24 02:04:30;;;;;;;2.60;2.10;;;11.10;99.90;;;;;;4987013;28;20215;-67
2023/03/24 02:06:58;;;;;;;3.03;2.47;;;11.10;99.90;;;;;;4984773;28;20204;-68
2023/03/24 02:09:23;;;;;;;2.53;2.33;;;11.10;99.90;;;;;;4986164;28;20203;-68
2023/03/24 02:11:49;;;;;;;2.60;2.40;;;11.20;99.90;;;;;;4987214;28;20217;-67
2023/03/24 02:14:16;;;;;;;2.90;2.70;;;11.20;99.90;;;;;;4988984;28;20217;-67
2023/03/24 02:16:56;;;;;;;2.20;2.00;;;11.20;99.90;;;;;;4987264;28;20230;-67
2023/03/24 02:19:49;;;;;;;4.03;2.77;;;11.20;99.90;;;;;;4986026;28;20662;-66
2023/03/24 02:22:39;;;;;;;2.00;1.90;;;11.30;99.90;;;;;;4985673;28;20202;-66
2023/03/24 02:25:20;;;;;;;2.47;2.27;;;11.30;99.90;;;;;;4985994;28;20819;-67
2023/03/24 02:28:18;;;;;;;2.93;2.27;;;11.30;99.90;;;;;;4984111;28;20619;-67
2023/03/24 02:31:09;;;;;;;2.20;2.10;;;11.30;99.90;;;;;;4985921;28;20215;-66
2023/03/24 02:34:23;;;;;;;2.90;2.60;;;11.30;99.90;;;;;;4984793;28;20634;-66
2023/03/24 02:37:06;;;;;;;3.93;2.43;;;11.40;99.90;;;;;;4957115;28;20231;-67
2023/03/24 02:39:57;;;;;;;2.43;2.23;;;11.50;99.90;;;;;;4986269;28;20209;-66
2023/03/24 02:42:48;;;;;;;3.67;2.63;;;11.50;99.90;;;;;;4985779;28;20200;-67
2023/03/24 02:45:42;;;;;;;2.00;1.73;;;11.50;99.90;;;;;;4984331;28;20273;-66
2023/03/24 02:48:51;;;;;;;3.53;2.53;;;11.60;99.90;;;;;;4984632;28;20999;-67
2023/03/24 02:51:33;;;;;;;3.97;2.20;;;11.60;99.90;;;;;;4971009;28;20236;-68
2023/03/24 02:54:10;;;;;;;2.30;2.10;;;11.60;99.90;;;;;;4981114;28;20265;-68
2023/03/24 02:56:42;;;;;;;2.60;2.40;;;11.40;99.90;;;;;;4976661;28;20226;-67
2023/03/24 02:59:16;;;;;;;4.07;2.37;;;11.40;99.90;;;;;;4994376;28;20315;-67
2023/03/24 03:02:06;;;;;;;2.43;2.23;;;11.30;99.90;;;;;;4995726;28;20209;-67
2023/03/24 03:04:48;;;;;;;2.63;2.43;;;11.30;99.90;;;;;;4995521;28;20309;-66
2023/03/24 03:07:20;;;;;;;2.50;2.30;;;11.30;99.90;;;;;;4994722;28;20238;-66
2023/03/24 03:09:52;;;;;;;2.80;2.50;;;11.30;99.90;;;;;;4976687;28;20256;-66
2023/03/24 03:12:21;;;;;;;3.83;2.63;;;11.30;99.90;;;;;;4976672;28;20254;-67
2023/03/24 03:14:59;;;;;;;2.53;2.37;;;11.30;99.90;;;;;;4976357;28;20219;-66
2023/03/24 03:17:31;;;;;;;3.23;2.93;;;11.30;99.90;;;;;;4992598;28;20199;-67
2023/03/24 03:20:03;;;;;;;3.30;2.43;;;11.30;99.90;;;;;;4997880;28;20207;-66
2023/03/24 03:22:38;;;;;;;2.70;2.10;;;11.30;99.90;;;;;;4999266;28;20219;-67
2023/03/24 03:25:05;;;;;;;2.23;2.10;;;11.30;99.90;;;;;;4999280;28;20209;-67
2023/03/24 03:27:37;;;;;;;2.33;2.13;;;11.30;99.90;;;;;;4998807;28;20207;-67
2023/03/24 03:30:17;;;;;;;3.00;2.37;;;11.30;99.90;;;;;;4980465;28;20214;-66
2023/03/24 03:32:52;;;;;;;2.50;2.30;;;11.30;99.90;;;;;;4991345;28;20716;-66
2023/03/24 03:35:31;;;;;;;2.00;1.87;;;11.30;99.90;;;;;;4996043;28;20241;-67
2023/03/24 03:37:57;;;;;;;3.83;2.83;;;11.20;99.90;;;;;;4998452;28;20294;-67
2023/03/24 03:40:34;;;;;;;2.63;2.43;;;11.20;99.90;;;;;;4996401;28;20884;-68
2023/03/24 03:43:00;;;;;;;2.97;2.77;;;11.30;99.90;;;;;;4997762;28;20210;-68
2023/03/24 03:45:26;;;;;;;2.53;2.33;;;11.20;99.90;;;;;;4995677;28;20214;-67
2023/03/24 03:47:51;;;;;;;2.40;2.20;;;11.20;99.90;;;;;;4980520;28;20262;-68
2023/03/24 03:50:17;;;;;;;2.97;2.73;;;11.20;99.90;;;;;;4998603;28;20195;-67
2023/03/24 03:52:43;;;;;;;3.33;2.73;;;11.20;99.90;;;;;;4998327;28;21149;-68
2023/03/24 03:55:10;;;;;;;2.70;2.50;;;11.20;99.90;;;;;;4997522;28;20197;-68
2023/03/24 03:57:36;;;;;;;2.77;2.57;;;11.30;99.90;;;;;;4997752;28;20560;-67
2023/03/24 04:00:10;;;;;;;5.40;2.43;;;11.20;99.90;;;;;;4995780;28;20279;-66
2023/03/24 04:03:16;;;;;;;4.17;2.90;;;11.30;99.90;;;;;;4993975;28;21503;-67
2023/03/24 04:06:00;;;;;;;3.70;2.47;;;11.30;99.90;;;;;;4986825;28;20616;-67
2023/03/24 04:08:46;;;;;;;2.97;2.67;;;11.30;99.90;;;;;;4988986;28;20205;-75
2023/03/24 04:11:27;;;;;;;3.20;2.47;;;11.20;99.90;;;;;;4988459;28;20287;-67
2023/03/24 04:14:17;;;;;;;6.17;3.33;;;11.30;99.90;;;;;;4987275;28;20233;-67
2023/03/24 04:17:13;;;;;;;4.73;3.10;;;11.30;99.90;;;;;;4988039;28;20261;-66
2023/03/24 04:20:11;;;;;;;3.90;3.00;;;11.30;99.90;;;;;;4986376;28;20229;-67
2023/03/24 04:22:41;;;;;;;6.00;3.47;;;11.30;99.90;;;;;;4987625;28;20203;-66
2023/03/24 04:25:09;;;;;;;4.43;3.20;;;11.30;99.90;;;;;;4988616;28;20619;-66
2023/03/24 04:27:46;;;;;;;7.00;3.33;;;11.40;99.90;;;;;;4988582;28;20203;-66
2023/03/24 04:30:39;;;;;;;3.77;3.23;;;11.40;99.90;;;;;;4988030;28;20538;-66
2023/03/24 04:33:16;;;;;;;4.73;3.43;;;11.40;99.90;;;;;;4988774;28;20256;-67
2023/03/24 04:35:51;;;;;;;3.97;2.83;;;11.40;99.90;;;;;;4987580;28;20604;-66
2023/03/24 04:38:24;;;;;;;3.57;3.20;;;11.40;99.90;;;;;;4987765;28;20210;-67
2023/03/24 04:40:54;;;;;;;4.10;3.70;;;11.40;99.90;;;;;;4987642;28;20212;-67
2023/03/24 04:43:23;;;;;;;4.00;3.63;;;11.50;99.90;;;;;;4996691;28;20206;-66
2023/03/24 04:45:50;;;;;;;3.83;3.40;;;11.50;99.90;;;;;;4978407;28;20227;-66
2023/03/24 04:48:18;;;;;;;3.93;3.37;;;11.50;99.90;;;;;;4978509;28;20222;-67
2023/03/24 04:50:52;;;;;;;3.57;3.27;;;11.50;99.90;;;;;;4980116;28;20210;-68
2023/03/24 04:53:18;;;;;;;4.63;4.17;;;11.50;99.90;;;;;;4976932;28;20281;-67
2023/03/24 04:55:49;;;;;;;5.20;3.77;;;11.50;99.90;;;;;;4978312;28;20670;-67
2023/03/24 04:58:17;;;;;;;4.40;4.00;;;11.60;99.90;;;;;;4978578;28;20244;-68
2023/03/24 05:00:42;;;;;;;3.87;3.33;;;11.60;99.90;;;;;;4977778;28;20214;-67
2023/03/24 05:03:13;;;;;;;5.20;3.60;;;11.60;99.90;;;;;;4995691;28;20194;-67
2023/03/24 05:05:47;;;;;;;4.03;3.63;;;11.70;99.90;;;;;;4997159;28;20265;-66
2023/03/24 05:08:13;;;;;;;4.63;3.90;;;11.70;99.90;;;;;;4997217;28;20333;-67
2023/03/24 05:10:39;;;;;;;7.53;3.77;;;11.70;99.90;;;;;;4994604;28;20219;-67
2023/03/24 05:13:05;;;;;;;4.43;3.43;;;11.70;99.90;;;;;;4997214;28;20697;-67
2023/03/24 05:15:31;;;;;;;6.63;3.70;;;11.70;99.90;;;;;;4996830;28;20197;-67
2023/03/24 05:17:57;;;;;;;4.60;4.20;;;11.70;99.90;;;;;;4995608;28;20206;-67
2023/03/24 05:20:23;;;;;;;5.60;3.93;;;11.70;99.90;;;;;;4996117;28;20194;-67
2023/03/24 05:22:50;;;;;;;5.00;3.40;;;11.70;99.90;;;;;;4986438;28;20550;-66
2023/03/24 05:25:17;;;;;;;4.03;3.20;;;11.70;99.90;;;;;;4987190;28;20379;-67
2023/03/24 05:27:43;;;;;;;4.33;3.93;;;11.70;99.90;;;;;;4986521;28;20257;-67
2023/03/24 05:30:09;;;;;;;4.97;3.83;;;11.80;99.90;;;;;;4987044;28;20206;-66
2023/03/24 05:32:35;;;;;;;6.60;3.93;;;11.80;99.90;;;;;;4987393;28;20237;-67
2023/03/24 05:35:01;;;;;;;4.97;3.50;;;11.80;99.90;;;;;;4985184;28;20251;-67
2023/03/24 05:37:26;;;;;;;5.50;3.77;;;11.90;99.90;;;;;;4987395;28;20210;-67
2023/03/24 05:39:52;;;;;;;5.67;3.83;;;11.90;99.90;;;;;;4985998;28;20210;-67
2023/03/24 05:42:19;;;;;;;5.93;3.53;;;11.90;99.90;;;;;;4985138;28;20204;-67
2023/03/24 05:44:44;;;;;;;5.70;3.63;;;11.90;99.90;;;;;;4986509;28;20326;-68
2023/03/24 05:47:12;;;;;;;4.77;4.37;;;11.90;99.90;;;;;;4990761;28;20282;-67
2023/03/24 05:49:37;;;;;;;4.23;3.83;;;11.90;99.90;;;;;;4994445;28;20224;-69
2023/03/24 05:52:04;;;;;;;4.53;4.13;;;11.90;99.90;;;;;;4996201;28;20714;-69
2023/03/24 05:54:32;;;;;;;4.83;3.93;;;11.90;99.90;;;;;;4996404;28;20196;-68
2023/03/24 05:56:58;;;;;;;3.67;3.37;;;11.90;99.90;;;;;;4996106;28;20253;-68
2023/03/24 05:59:24;;;;;;;3.87;3.43;;;12.00;99.90;;;;;;4994481;28;20419;-68
2023/03/24 06:01:49;;;;;;;5.27;4.30;;;12.00;99.90;;;;;;4996147;28;20289;-67
2023/03/24 06:04:14;;;;;;;4.03;3.70;;;12.00;99.90;;;;;;4996035;28;20231;-67
2023/03/24 06:06:44;;;;;;;5.83;4.50;;;12.00;99.90;;;;;;4994888;28;20228;-68
2023/03/24 06:09:11;;;;;;;4.07;3.73;;;12.10;99.90;;;;;;4980050;28;20199;-68
2023/03/24 06:11:36;;;;;;;3.87;3.57;;;12.10;99.90;;;;;;4976806;28;20212;-67
2023/03/24 06:14:02;;;;;;;3.90;3.27;;;12.10;99.90;;;;;;4984498;28;20206;-66
2023/03/24 06:16:28;;;;;;;3.57;3.23;;;12.20;99.90;;;;;;4986722;28;20201;-67
2023/03/24 06:18:54;;;;;;;3.80;3.50;;;12.20;99.90;;;;;;4987079;28;20972;-66
2023/03/24 06:21:20;;;;;;;7.03;3.80;;;12.20;99.90;;;;;;4986920;28;20202;-67
2023/03/24 06:23:46;;;;;;;4.90;3.93;;;12.30;99.90;;;;;;4986637;28;20298;-66
2023/03/24 06:26:13;;;;;;;5.90;3.90;;;12.30;99.90;;;;;;4986517;28;20689;-67
2023/03/24 06:28:40;;;;;;;3.93;3.50;;;12.40;99.90;;;;;;4984382;28;20217;-65
2023/03/24 06:31:13;;;;;;;5.10;3.83;;;12.50;99.90;;;;;;4985777;28;20228;-67
2023/03/24 06:33:39;;;;;;;4.90;4.20;;;12.60;99.90;;;;;;4985466;28;20234;-66
2023/03/24 06:36:06;;;;;;;4.37;3.90;;;12.50;99.90;;;;;;4985780;28;20207;-67
2023/03/24 06:38:32;;;;;;;3.20;2.97;;;12.50;99.90;;;;;;4984331;28;20253;-68
2023/03/24 06:41:01;;;;;;;5.40;3.57;;;12.50;99.90;;;;;;4989982;28;20194;-67
2023/03/24 06:43:27;;;;;;;4.20;3.80;;;12.40;99.90;;;;;;4986137;28;20317;-67
2023/03/24 06:45:52;;;;;;;3.37;3.17;;;12.40;99.90;;;;;;4985992;28;20289;-66
2023/03/24 06:48:18;;;;;;;4.20;3.50;;;12.50;99.90;;;;;;4986052;28;20200;-67
2023/03/24 06:50:43;;;;;;;3.73;3.43;;;12.50;99.90;;;;;;4984853;28;20214;-67
2023/03/24 06:53:09;;;;;;;5.20;3.50;;;12.50;99.90;;;;;;4987006;28;20193;-67
2023/03/24 06:55:35;;;;;;;3.63;3.33;;;12.50;99.90;;;;;;4988407;28;20213;-67
2023/03/24 06:58:01;;;;;;;3.93;3.33;;;12.60;99.90;;;;;;4990521;28;20214;-68
2023/03/24 07:00:28;;;;;;;4.97;3.50;;;12.60;99.90;;;;;;4988685;28;20273;-67
2023/03/24 07:02:54;;;;;;;3.80;3.40;;;12.60;99.90;;;;;;4992504;28;20207;-67
2023/03/24 07:05:20;;;;;;;3.60;3.30;;;12.70;99.90;;;;;;4989828;28;20220;-66
2023/03/24 07:07:46;;;;;;;3.37;3.13;;;12.80;99.90;;;;;;4989002;28;20661;-67
2023/03/24 07:10:12;;;;;;;5.33;3.37;;;12.80;99.90;;;;;;4989575;28;20233;-68
2023/03/24 07:12:39;;;;;;;3.60;3.30;;;12.90;99.90;;;;;;4989116;28;20203;-67
2023/03/24 07:15:06;;;;;;;4.90;3.63;;;13.00;99.90;;;;;;4988760;28;20209;-67
2023/03/24 07:17:31;;;;;;;4.50;3.67;;;13.10;99.90;;;;;;4988304;28;20208;-67
2023/03/24 07:19:57;;;;;;;3.47;3.17;;;13.20;99.90;;;;;;4989429;28;20212;-79
2023/03/24 07:22:23;;;;;;;4.40;3.87;;;13.30;99.90;;;;;;4987979;28;20621;-69
2023/03/24 07:24:48;;;;;;;4.40;3.30;;;13.40;99.90;;;;;;4988793;28;20223;-69
2023/03/24 07:27:14;;;;;;;3.80;3.43;;;13.50;99.90;;;;;;4992194;28;20975;-71
2023/03/24 07:29:39;;;;;;;5.47;3.47;;;13.60;99.90;;;;;;4979801;28;20211;-69
2023/03/24 07:32:06;;;;;;;3.83;3.30;;;13.80;99.90;;;;;;4980010;28;20978;-73
2023/03/24 07:34:32;;;;;;;3.30;3.10;;;13.90;99.90;;;;;;4979630;28;20230;-69
2023/03/24 07:36:58;;;;;;;3.63;3.33;;;14.10;99.90;;;;;;4979982;28;20204;-70
2023/03/24 07:39:23;;;;;;;3.67;3.37;;;14.10;99.90;;;;;;4979509;28;20211;-71
2023/03/24 07:41:49;;;;;;;5.23;3.30;;;14.20;99.90;;;;;;4992120;28;20739;-70
2023/03/24 07:44:15;;;;;;;3.93;2.87;;;14.20;99.90;;;;;;4970815;28;20700;-70
2023/03/24 07:46:40;;;;;;;3.50;3.20;;;14.20;99.90;;;;;;4988370;28;20595;-69
2023/03/24 07:49:06;;;;;;;4.20;3.53;;;14.20;99.90;;;;;;4987236;28;20698;-71
2023/03/24 07:51:32;;;;;;;5.50;3.70;;;14.00;99.90;;;;;;4987380;28;20311;-69
2023/03/24 07:53:58;;;;;;;3.50;3.10;;;13.80;99.90;;;;;;4986990;28;20295;-77
2023/03/24 07:56:24;;;;;;;3.43;3.13;;;13.50;99.90;;;;;;4989322;28;20228;-73
2023/03/24 07:58:49;;;;;;;4.47;4.07;;;13.50;99.90;;;;;;4989782;28;20297;-72
2023/03/24 08:01:15;;;;;;;4.17;3.43;;;13.40;99.90;;;;;;4989590;28;20233;-72
2023/03/24 08:03:41;;;;;;;3.23;2.93;;;13.50;99.90;;;;;;4990355;28;20210;-67
2023/03/24 08:06:08;;;;;;;3.97;3.57;;;13.50;99.90;;;;;;4984134;28;20216;-67
2023/03/24 08:08:35;;;;;;;4.47;3.70;;;13.50;99.90;;;;;;4989762;28;20661;-64
2023/03/24 08:11:01;;;;;;;4.90;3.57;;;13.50;99.90;;;;;;4986523;28;20551;-65
2023/03/24 08:13:26;;;;;;;4.07;3.73;;;13.50;99.90;;;;;;4988661;28;20303;-65
2023/03/24 08:15:52;;;;;;;3.50;3.20;;;13.50;99.90;;;;;;4988325;28;20557;-66
2023/03/24 08:18:23;;;;;;;4.57;3.90;;;13.50;99.90;;;;;;4988405;28;20287;-65
2023/03/24 08:20:49;;;;;;;3.53;3.07;;;13.50;99.90;;;;;;4988823;28;20718;-65
2023/03/24 08:23:16;;;;;;;4.00;2.93;;;13.50;99.90;;;;;;4988683;28;21393;-74
2023/03/24 08:25:42;;;;;;;4.80;3.77;;;13.60;99.90;;;;;;4988741;28;20587;-62
2023/03/24 08:28:08;;;;;;;3.60;3.30;;;13.50;99.90;;;;;;4987747;28;20204;-62
2023/03/24 08:30:33;;;;;;;4.27;3.13;;;13.50;99.90;;;;;;4989416;28;20317;-63
2023/03/24 08:33:00;;;;;;;4.27;3.73;;;13.50;99.90;;;;;;4986264;28;20658;-63
2023/03/24 08:35:33;;;;;;;3.87;3.33;;;13.50;99.90;;;;;;4988229;28;20215;-62
2023/03/24 08:37:59;;;;;;;6.03;4.07;;;13.50;99.90;;;;;;4985931;28;20216;-63
2023/03/24 08:40:27;;;;;;;4.10;3.80;;;13.60;99.90;;;;;;4988959;28;20937;-62
2023/03/24 08:42:55;;;;;;;4.63;4.23;;;13.60;99.90;;;;;;4984629;28;20207;-62
2023/03/24 08:45:26;;;;;;;5.20;4.17;;;13.60;99.90;;;;;;4985138;28;20232;-62
2023/03/24 08:47:51;;;;;;;4.33;3.40;;;13.70;99.90;;;;;;4987031;28;20251;-61
2023/03/24 08:50:19;;;;;;;3.83;3.53;;;13.60;99.90;;;;;;4985920;28;20294;-62
2023/03/24 08:52:48;;;;;;;3.93;3.53;;;13.80;99.90;;;;;;4988844;28;20311;-62
2023/03/24 08:55:15;;;;;;;3.80;3.50;;;13.80;99.90;;;;;;4986865;28;20727;-63
2023/03/24 08:57:41;;;;;;;5.20;4.73;;;13.90;99.90;;;;;;4985027;28;20215;-61
2023/03/24 09:00:14;;;;;;;3.63;3.33;;;13.90;99.90;;;;;;4987868;28;20213;-61
2023/03/24 09:02:45;;;;;;;4.30;3.73;;;14.00;99.90;;;;;;4989008;28;20632;-61
2023/03/24 09:05:11;;;;;;;3.43;3.13;;;14.10;99.90;;;;;;4986081;28;20343;-61
2023/03/24 09:07:37;;;;;;;3.13;2.93;;;14.20;99.90;;;;;;4978913;28;20228;-61
2023/03/24 09:10:06;;;;;;;3.27;3.07;;;14.20;99.90;;;;;;4987266;28;20654;-62
2023/03/24 09:12:32;;;;;;;3.20;3.00;;;14.30;99.90;;;;;;4988547;28;20197;-63
2023/03/24 09:14:57;;;;;;;4.73;4.23;;;14.20;99.90;;;;;;4986983;28;20204;-66
2023/03/24 09:17:23;;;;;;;3.20;2.73;;;14.20;99.90;;;;;;4986292;28;20238;-60
2023/03/24 09:19:48;;;;;;;4.33;3.50;;;14.20;99.90;;;;;;4984601;28;20203;-60
2023/03/24 09:22:14;;;;;;;3.93;3.53;;;14.30;99.90;;;;;;4985898;28;20255;-61
2023/03/24 09:24:39;;;;;;;5.60;3.10;;;14.50;99.90;;;;;;4985823;28;20227;-61
2023/03/24 09:27:05;;;;;;;4.33;3.00;;;14.50;99.90;;;;;;4985869;28;20683;-60
2023/03/24 09:29:30;;;;;;;4.53;3.50;;;14.60;99.90;;;;;;4983269;28;20224;-74
2023/03/24 09:31:56;;;;;;;3.87;3.47;;;14.70;99.90;;;;;;4986479;28;20571;-78
2023/03/24 09:34:23;;;;;;;3.37;3.07;;;14.90;99.90;;;;;;4985568;28;20231;-77
2023/03/24 09:36:49;;;;;;;3.93;3.17;;;14.90;99.90;;;;;;4986135;28;20214;-64
2023/03/24 09:39:15;;;;;;;3.37;3.13;;;15.00;99.90;;;;;;4985724;28;20213;-64
2023/03/24 09:41:44;;;;;;;3.47;2.83;;;15.20;99.90;;;;;;4985558;28;20204;-62
2023/03/24 09:44:32;;;;;;;3.33;3.03;;;15.40;99.90;;;;;;4984405;28;20836;-62
2023/03/24 09:47:24;;;;;;;2.93;2.60;;;15.60;99.90;;;;;;4985325;28;20220;-63
2023/03/24 09:49:52;;;;;;;3.50;3.20;;;15.80;99.90;;;;;;4985712;28;20225;-63
2023/03/24 09:52:29;;;;;;;3.80;2.97;;;15.90;99.90;;;;;;4985781;28;20203;-63
2023/03/24 09:54:57;;;;;;;3.03;2.83;;;15.90;99.90;;;;;;4986163;28;20212;-64
2023/03/24 09:57:42;;;;;;;3.10;2.80;;;15.90;99.90;;;;;;4986446;28;20768;-65
2023/03/24 10:00:29;;;;;;;4.27;2.70;;;16.00;99.90;;;;;;4984934;28;20610;-62
2023/03/24 10:03:13;;;;;;;3.47;3.10;;;16.00;99.90;;;;;;4985664;28;20319;-65
2023/03/24 10:05:44;;;;;;;2.80;2.60;;;15.80;99.90;;;;;;4982839;28;20712;-72
2023/03/24 10:08:17;;;;;;;3.43;3.13;;;15.70;99.90;;;;;;4984956;28;20204;-72
2023/03/24 10:11:09;;;;;;;6.17;2.70;;;15.60;99.90;;;;;;4984833;28;20251;-73
2023/03/24 10:14:00;;;;;;;3.17;2.40;;;15.60;99.90;;;;;;4982765;28;20239;-73
2023/03/24 10:16:39;;;;;;;2.70;2.40;;;15.60;99.90;;;;;;4984484;28;20207;-75
2023/03/24 10:19:23;;;;;;;2.53;2.30;;;15.80;99.90;;;;;;4987933;28;20678;-74
2023/03/24 10:22:08;;;;;;;3.10;2.30;;;16.00;99.90;;;;;;4986299;28;20203;-75
2023/03/24 10:24:47;;;;;;;2.60;2.27;;;15.90;99.90;;;;;;4984582;28;20200;-75
2023/03/24 10:27:29;;;;;;;3.07;2.37;;;15.80;99.90;;;;;;4983920;28;20270;-74
2023/03/24 10:30:04;;;;;;;2.23;2.13;;;15.80;99.90;;;;;;4985679;28;20216;-78
2023/03/24 10:32:34;;;;;;;2.63;2.43;;;16.00;99.90;;;;;;4985492;28;20231;-79
2023/03/24 10:35:08;;;;;;;3.90;2.20;;;16.30;99.90;;;;;;4986636;28;20230;-81
2023/03/24 10:37:33;;;;;;;3.23;2.20;;;16.70;99.90;;;;;;4985636;28;20205;-80
2023/03/24 10:39:59;;;;;;;1.93;1.83;;;17.30;99.90;;;;;;4986473;28;20217;-76
2023/03/24 10:42:30;;;;;;;2.73;2.27;;;17.80;99.90;;;;;;4985696;28;20223;-79
2023/03/24 10:44:56;;;;;;;2.20;2.00;;;17.90;99.90;;;;;;4985456;28;20274;-80
2023/03/24 10:47:25;;;;;;;3.73;2.60;;;17.50;99.90;;;;;;4985073;28;20197;-79
2023/03/24 10:49:53;;;;;;;4.37;2.63;;;16.90;99.90;;;;;;4983186;28;20675;-81
2023/03/24 10:52:19;;;;;;;2.40;2.20;;;16.60;99.90;;;;;;4985877;28;20197;-76
2023/03/24 10:55:03;;;;;;;2.17;1.97;;;16.50;99.90;;;;;;4983905;28;20577;-76
2023/03/24 10:57:29;;;;;;;2.70;2.40;;;16.70;99.90;;;;;;4985088;28;20351;-76
2023/03/24 11:00:14;;;;;;;2.63;2.33;;;16.60;99.90;;;;;;4987029;28;20204;-76
2023/03/24 11:02:41;;;;;;;2.60;2.50;;;16.50;99.90;;;;;;4984342;28;20295;-76
2023/03/24 11:05:17;;;;;;;3.63;3.00;;;16.60;99.90;;;;;;4984703;28;20217;-77
2023/03/24 11:07:48;;;;;;;2.73;2.50;;;16.50;99.90;;;;;;4984013;28;20205;-76
2023/03/24 11:10:25;;;;;;;3.70;2.60;;;16.50;99.90;;;;;;4985121;28;20912;-77
2023/03/24 11:13:02;;;;;;;4.93;2.67;;;16.50;99.90;;;;;;4985753;28;20266;-78
2023/03/24 11:15:30;;;;;;;2.90;2.43;;;16.70;99.90;;;;;;4988462;28;20208;-73
2023/03/24 11:18:06;;;;;;;3.53;2.50;;;16.90;99.90;;;;;;4985534;28;20204;-70
2023/03/24 11:20:38;;;;;;;2.50;2.30;;;16.90;99.90;;;;;;4983649;28;20295;-73
2023/03/24 11:23:15;;;;;;;2.97;2.27;;;17.10;99.90;;;;;;4985056;28;20205;-86
2023/03/24 11:25:46;;;;;;;2.40;2.30;;;17.60;99.90;;;;;;4984702;28;20263;-73
2023/03/24 11:28:18;;;;;;;5.03;2.53;;;17.60;99.90;;;;;;4983194;28;20200;-72
2023/03/24 11:30:50;;;;;;;2.50;2.30;;;17.90;99.90;;;;;;4984768;28;20301;-76
2023/03/24 11:33:18;;;;;;;2.47;2.27;;;18.30;99.90;;;;;;4983965;28;20247;-75
2023/03/24 11:35:43;;;;;;;2.70;2.17;;;18.30;99.90;;;;;;4981976;28;20214;-73
2023/03/24 11:38:16;;;;;;;2.37;2.20;;;18.30;99.90;;;;;;4986885;28;20209;-76
2023/03/24 11:40:53;;;;;;;3.80;2.27;;;18.20;99.90;;;;;;4986300;28;20797;-84
2023/03/24 11:43:20;;;;;;;2.23;2.03;;;17.90;99.90;;;;;;4968394;28;20201;-73
2023/03/24 11:45:58;;;;;;;2.43;2.27;;;17.60;99.90;;;;;;4988650;28;20695;-74
2023/03/24 11:48:32;;;;;;;2.53;2.33;;;17.40;99.90;;;;;;4988155;28;20207;-73
2023/03/24 11:51:00;;;;;;;3.70;2.27;;;17.40;99.90;;;;;;4988607;28;20196;-73
2023/03/24 11:53:36;;;;;;;2.80;2.23;;;17.40;99.90;;;;;;4988545;28;20259;-73
2023/03/24 11:56:12;;;;;;;3.33;2.80;;;17.40;99.90;;;;;;4986399;28;20193;-72
2023/03/24 11:58:45;;;;;;;3.93;2.37;;;17.20;99.90;;;;;;4989242;28;20244;-72
2023/03/24 12:01:40;;;;;;;2.27;2.17;;;17.40;99.90;;;;;;4988671;28;20258;-72
2023/03/24 12:04:11;;;;;;;1.90;1.80;;;17.50;99.90;;;;;;4988485;28;20267;-71
2023/03/24 12:07:21;;;;;;;2.73;2.07;;;17.80;99.90;;;;;;4988118;28;20216;-71
2023/03/24 12:10:00;;;;;;;2.93;2.40;;;18.10;99.90;;;;;;4988507;28;20197;-73
2023/03/24 12:12:41;;;;;;;2.67;2.07;;;18.00;99.90;;;;;;4987972;28;20552;-72
2023/03/24 12:15:12;;;;;;;3.03;2.17;;;17.70;99.90;;;;;;4987960;28;20209;-72
2023/03/24 12:17:46;;;;;;;3.40;2.17;;;17.70;99.90;;;;;;4986856;28;20275;-72
2023/03/24 12:20:33;;;;;;;2.10;1.93;;;17.70;99.90;;;;;;4988628;28;20544;-72
2023/03/24 12:23:03;;;;;;;2.67;2.13;;;17.60;99.90;;;;;;4986568;28;20549;-73
2023/03/24 12:25:47;;;;;;;2.37;2.13;;;17.30;99.90;;;;;;4995748;28;20212;-73
2023/03/24 12:28:41;;;;;;;2.87;2.00;;;16.90;99.90;;;;;;4996813;28;20227;-72
2023/03/24 12:31:46;;;;;;;3.73;2.40;;;16.70;99.90;;;;;;4997590;28;20301;-72
2023/03/24 12:34:30;;;;;;;2.93;1.77;;;16.60;99.90;;;;;;4966590;28;20291;-72
2023/03/24 12:37:12;;;;;;;1.70;1.60;;;16.50;99.90;;;;;;4978831;28;20259;-73
2023/03/24 12:39:54;;;;;;;3.23;1.93;;;16.70;99.90;;;;;;4996472;28;20877;-73
2023/03/24 12:42:22;;;;;;;1.87;1.70;;;16.90;99.90;;;;;;4996286;28;20746;-72
2023/03/24 12:45:06;;;;;;;2.40;2.20;;;16.80;99.90;;;;;;4996541;28;20220;-72
2023/03/24 12:48:03;;;;;;;1.97;1.87;;;16.60;99.90;;;;;;4997528;28;20223;-72
2023/03/24 12:50:40;;;;;;;2.97;1.80;;;16.50;99.90;;;;;;4997495;28;20244;-72
2023/03/24 12:53:22;;;;;;;1.67;1.50;;;16.50;99.90;;;;;;4996501;28;20254;-72
2023/03/24 12:55:51;;;;;;;2.07;1.97;;;16.30;99.90;;;;;;4996285;28;20239;-72
2023/03/24 12:58:41;;;;;;;1.90;1.80;;;16.20;99.90;;;;;;4994024;28;20208;-71
2023/03/24 13:01:18;;;;;;;2.60;1.97;;;16.10;99.90;;;;;;4996510;28;20208;-72
2023/03/24 13:03:52;;;;;;;2.47;2.27;;;16.00;99.90;;;;;;4997032;28;20212;-72
2023/03/24 13:06:26;;;;;;;1.80;1.70;;;16.10;99.90;;;;;;4996656;28;20207;-72
2023/03/24 13:09:14;;;;;;;1.73;1.63;;;16.00;99.90;;;;;;4996413;28;20230;-70
2023/03/24 13:12:00;;;;;;;1.87;1.77;;;15.90;99.90;;;;;;4978454;28;20764;-73